Time;durP1;ratioP1;P1;durP2;ratioP2;P2;SDS_P1;SDS_P2;PMS_P1;PMS_P2;Temp;Humidity;BMP_temperature;BMP_pressure;BME280_temperature;BME280_humidity;BME280_pressure;Samples;Min_cycle;Max_cycle;Signal;HPM_P1;HPM_P2
2021/07/02 00:00:32;;;;;;;62.35;21.88;;;;;;;;;;5093411;28;20081;-66
2021/07/02 00:02:58;;;;;;;66.68;20.92;;;;;;;;;;5093600;28;20032;-67
2021/07/02 00:05:24;;;;;;;65.47;21.38;;;;;;;;;;5093042;28;20036;-67
2021/07/02 00:07:50;;;;;;;58.30;20.90;;;;;;;;;;5093542;28;20030;-66
2021/07/02 00:10:15;;;;;;;58.35;19.95;;;;;;;;;;5092784;28;20039;-67
2021/07/02 00:12:41;;;;;;;61.08;21.60;;;;;;;;;;5089125;28;20028;-66
2021/07/02 00:15:06;;;;;;;61.90;21.50;;;;;;;;;;5087778;28;20020;-67
2021/07/02 00:17:31;;;;;;;80.45;25.67;;;;;;;;;;5077308;28;20036;-66
2021/07/02 00:19:56;;;;;;;62.47;22.60;;;;;;;;;;5090531;28;20086;-66
2021/07/02 00:22:22;;;;;;;56.40;21.98;;;;;;;;;;5082851;28;20062;-67
2021/07/02 00:24:47;;;;;;;54.97;22.02;;;;;;;;;;5074319;28;20469;-67
2021/07/02 00:27:12;;;;;;;56.58;21.10;;;;;;;;;;5085265;28;20028;-67
2021/07/02 00:29:38;;;;;;;59.08;21.80;;;;;;;;;;5072959;28;20107;-67
2021/07/02 00:32:03;;;;;;;57.63;22.05;;;;;;;;;;5072812;28;20504;-66
2021/07/02 00:34:28;;;;;;;51.17;20.25;;;;;;;;;;5074821;28;20025;-67
2021/07/02 00:36:54;;;;;;;56.38;21.17;;;;;;;;;;5079995;28;20036;-66
2021/07/02 00:39:19;;;;;;;46.13;19.73;;;;;;;;;;5085195;28;20038;-67
2021/07/02 00:41:44;;;;;;;42.75;18.52;;;;;;;;;;5086970;28;20032;-66
2021/07/02 00:44:10;;;;;;;58.28;21.00;;;;;;;;;;5078561;28;20020;-67
2021/07/02 00:46:35;;;;;;;58.58;20.17;;;;;;;;;;5080239;28;20055;-66
2021/07/02 00:49:00;;;;;;;57.85;19.63;;;;;;;;;;5079583;28;20055;-65
2021/07/02 00:51:29;;;;;;;50.55;19.67;;;;;;;;;;5071698;28;20016;-67
2021/07/02 00:53:55;;;;;;;55.22;19.92;;;;;;;;;;5088406;28;20032;-66
2021/07/02 00:56:20;;;;;;;59.90;21.20;;;;;;;;;;5079156;28;20044;-67
2021/07/02 00:58:45;;;;;;;66.30;22.25;;;;;;;;;;5074617;28;20449;-67
2021/07/02 01:01:15;;;;;;;57.08;20.50;;;;;;;;;;5091222;28;20786;-66
2021/07/02 01:03:43;;;;;;;66.03;19.83;;;;;;;;;;5086937;28;20024;-65
2021/07/02 01:06:09;;;;;;;65.97;21.27;;;;;;;;;;5090235;28;20032;-66
2021/07/02 01:08:35;;;;;;;67.22;19.85;;;;;;;;;;5073001;28;20492;-67
2021/07/02 01:11:00;;;;;;;57.80;20.27;;;;;;;;;;5072583;28;20032;-65
2021/07/02 01:13:25;;;;;;;46.97;18.48;;;;;;;;;;5086162;28;20025;-66
2021/07/02 01:15:51;;;;;;;59.80;19.52;;;;;;;;;;5072473;28;20041;-67
2021/07/02 01:18:17;;;;;;;50.08;18.25;;;;;;;;;;5085777;28;20103;-67
2021/07/02 01:20:43;;;;;;;71.78;20.77;;;;;;;;;;5079158;28;20051;-67
2021/07/02 01:23:08;;;;;;;54.58;19.70;;;;;;;;;;5093507;28;20380;-67
2021/07/02 01:25:34;;;;;;;57.70;19.70;;;;;;;;;;5077920;28;20111;-66
2021/07/02 01:27:59;;;;;;;55.90;19.85;;;;;;;;;;5095216;28;20028;-67
2021/07/02 01:30:25;;;;;;;67.82;20.40;;;;;;;;;;5079580;28;20058;-66
2021/07/02 01:32:50;;;;;;;54.53;19.73;;;;;;;;;;5084397;28;20107;-67
2021/07/02 01:35:17;;;;;;;57.08;19.48;;;;;;;;;;5082200;28;20028;-67
2021/07/02 01:37:42;;;;;;;70.68;21.67;;;;;;;;;;5081914;28;20047;-67
2021/07/02 01:40:08;;;;;;;55.80;20.13;;;;;;;;;;5092740;28;20032;-67
2021/07/02 01:42:33;;;;;;;56.90;20.45;;;;;;;;;;5096136;28;20027;-66
2021/07/02 01:44:58;;;;;;;106.80;24.40;;;;;;;;;;5078797;28;20035;-67
2021/07/02 01:47:24;;;;;;;59.75;20.95;;;;;;;;;;5092591;28;20514;-66
2021/07/02 01:49:49;;;;;;;61.38;19.92;;;;;;;;;;5094348;28;20145;-67
2021/07/02 01:52:14;;;;;;;79.25;21.98;;;;;;;;;;5083596;28;20099;-67
2021/07/02 01:54:40;;;;;;;68.90;20.42;;;;;;;;;;5076690;28;20396;-66
2021/07/02 01:57:08;;;;;;;51.65;19.52;;;;;;;;;;5082231;28;20040;-66
2021/07/02 01:59:33;;;;;;;56.13;20.30;;;;;;;;;;5075833;28;20043;-66
2021/07/02 02:01:58;;;;;;;64.95;21.45;;;;;;;;;;5075738;28;20032;-67
2021/07/02 02:04:23;;;;;;;50.72;19.33;;;;;;;;;;5088952;28;20110;-67
2021/07/02 02:06:49;;;;;;;58.88;20.42;;;;;;;;;;5092277;28;20496;-66
2021/07/02 02:09:14;;;;;;;65.28;21.45;;;;;;;;;;5076945;28;20070;-67
2021/07/02 02:11:39;;;;;;;85.88;22.45;;;;;;;;;;5093849;28;20109;-67
2021/07/02 02:14:10;;;;;;;62.72;21.55;;;;;;;;;;5093254;28;20389;-67
2021/07/02 02:16:35;;;;;;;65.68;21.83;;;;;;;;;;5093744;28;20043;-66
2021/07/02 02:19:00;;;;;;;59.65;20.08;;;;;;;;;;5093867;28;20024;-67
2021/07/02 02:21:26;;;;;;;58.78;20.52;;;;;;;;;;5090108;28;20171;-66
2021/07/02 02:23:51;;;;;;;66.97;21.40;;;;;;;;;;5095388;28;20032;-67
2021/07/02 02:26:16;;;;;;;57.20;20.27;;;;;;;;;;5082113;28;20023;-67
2021/07/02 02:28:41;;;;;;;61.45;20.90;;;;;;;;;;5087826;28;20093;-66
2021/07/02 02:31:07;;;;;;;77.50;22.55;;;;;;;;;;5095359;28;20024;-67
2021/07/02 02:33:32;;;;;;;96.93;23.48;;;;;;;;;;5091598;28;20368;-66
2021/07/02 02:35:57;;;;;;;99.93;23.40;;;;;;;;;;5079918;28;20087;-67
2021/07/02 02:38:23;;;;;;;78.97;21.48;;;;;;;;;;5084206;28;20036;-67
2021/07/02 02:40:48;;;;;;;83.78;21.85;;;;;;;;;;5091916;28;20029;-66
2021/07/02 02:43:13;;;;;;;67.22;21.13;;;;;;;;;;5074912;28;20385;-66
2021/07/02 02:45:38;;;;;;;83.28;23.23;;;;;;;;;;5082838;28;20043;-67
2021/07/02 02:48:04;;;;;;;67.32;21.38;;;;;;;;;;5082159;28;20044;-67
2021/07/02 02:50:29;;;;;;;82.15;22.10;;;;;;;;;;5085131;28;20035;-67
2021/07/02 02:52:55;;;;;;;59.72;20.67;;;;;;;;;;5087097;28;20065;-66
2021/07/02 02:55:20;;;;;;;75.80;21.02;;;;;;;;;;5076618;28;20047;-66
2021/07/02 02:57:45;;;;;;;63.33;20.17;;;;;;;;;;5080628;28;20545;-66
2021/07/02 03:00:11;;;;;;;51.38;18.45;;;;;;;;;;5094130;28;20411;-66
2021/07/02 03:02:36;;;;;;;57.35;20.13;;;;;;;;;;5078778;28;20021;-66
2021/07/02 03:05:02;;;;;;;59.17;20.15;;;;;;;;;;5086986;28;20562;-66
2021/07/02 03:07:27;;;;;;;62.55;19.67;;;;;;;;;;5083005;28;20029;-67
2021/07/02 03:09:52;;;;;;;56.22;18.85;;;;;;;;;;5074736;28;20067;-66
2021/07/02 03:12:18;;;;;;;56.97;19.75;;;;;;;;;;5094467;28;20043;-67
2021/07/02 03:14:43;;;;;;;71.20;20.65;;;;;;;;;;5093686;28;20024;-66
2021/07/02 03:17:09;;;;;;;74.82;21.13;;;;;;;;;;5078302;28;20028;-67
2021/07/02 03:19:34;;;;;;;88.03;21.35;;;;;;;;;;5091888;28;20416;-67
2021/07/02 03:21:59;;;;;;;74.65;20.13;;;;;;;;;;5075188;28;20032;-67
2021/07/02 03:24:25;;;;;;;63.67;19.20;;;;;;;;;;5090071;28;20028;-66
2021/07/02 03:26:50;;;;;;;59.78;19.27;;;;;;;;;;5077155;28;20028;-67
2021/07/02 03:29:16;;;;;;;56.15;18.13;;;;;;;;;;5090647;28;20035;-66
2021/07/02 03:31:41;;;;;;;59.70;18.88;;;;;;;;;;5094132;28;20027;-66
2021/07/02 03:34:06;;;;;;;58.50;18.75;;;;;;;;;;5084564;28;20073;-67
2021/07/02 03:36:32;;;;;;;50.38;18.52;;;;;;;;;;5081847;28;20040;-67
2021/07/02 03:38:58;;;;;;;53.88;18.55;;;;;;;;;;5084668;28;20415;-67
2021/07/02 03:41:23;;;;;;;56.40;19.15;;;;;;;;;;5078252;28;20032;-66
2021/07/02 03:43:49;;;;;;;50.55;18.05;;;;;;;;;;5094000;28;20027;-67
2021/07/02 03:46:14;;;;;;;55.10;17.67;;;;;;;;;;5085077;28;20345;-66
2021/07/02 03:48:39;;;;;;;66.93;20.15;;;;;;;;;;5089263;28;20028;-66
2021/07/02 03:51:05;;;;;;;82.35;20.45;;;;;;;;;;5078028;28;20028;-66
2021/07/02 03:53:30;;;;;;;62.40;18.63;;;;;;;;;;5086718;28;20085;-67
2021/07/02 03:55:55;;;;;;;53.95;17.90;;;;;;;;;;5087570;28;20037;-66
2021/07/02 03:58:21;;;;;;;54.72;17.95;;;;;;;;;;5073576;28;20039;-67
2021/07/02 04:00:46;;;;;;;68.63;20.45;;;;;;;;;;5078556;28;20452;-66
2021/07/02 04:03:13;;;;;;;60.28;19.52;;;;;;;;;;5079855;28;20043;-66
2021/07/02 04:05:43;;;;;;;68.63;20.20;;;;;;;;;;5072866;28;20145;-67
2021/07/02 04:08:08;;;;;;;53.38;18.75;;;;;;;;;;5093550;28;20047;-67
2021/07/02 04:10:33;;;;;;;68.85;20.05;;;;;;;;;;5092668;28;20059;-67
2021/07/02 04:12:59;;;;;;;64.45;19.65;;;;;;;;;;5084559;28;20404;-67
2021/07/02 04:15:24;;;;;;;90.72;21.77;;;;;;;;;;5081023;28;20016;-65
2021/07/02 04:17:49;;;;;;;66.13;20.10;;;;;;;;;;5086336;28;20028;-66
2021/07/02 04:20:15;;;;;;;59.38;19.25;;;;;;;;;;5084593;28;20576;-66
2021/07/02 04:22:40;;;;;;;55.58;18.45;;;;;;;;;;5090539;28;20028;-66
2021/07/02 04:25:06;;;;;;;50.38;17.77;;;;;;;;;;5093265;28;20035;-67
2021/07/02 04:27:32;;;;;;;62.03;19.83;;;;;;;;;;5089404;28;20426;-67
2021/07/02 04:29:57;;;;;;;61.72;19.42;;;;;;;;;;5091719;28;20050;-66
2021/07/02 04:32:23;;;;;;;70.35;19.98;;;;;;;;;;5078219;28;20028;-66
2021/07/02 04:34:48;;;;;;;60.45;18.73;;;;;;;;;;5080358;28;20036;-67
2021/07/02 04:37:13;;;;;;;74.25;20.80;;;;;;;;;;5087460;28;20043;-67
2021/07/02 04:39:39;;;;;;;95.13;22.67;;;;;;;;;;5074701;28;20496;-66
2021/07/02 04:42:04;;;;;;;66.78;18.75;;;;;;;;;;5073140;28;20028;-65
2021/07/02 04:44:30;;;;;;;60.85;18.45;;;;;;;;;;5086582;28;20021;-66
2021/07/02 04:46:55;;;;;;;57.65;18.00;;;;;;;;;;5087606;28;20074;-66
2021/07/02 04:49:20;;;;;;;50.72;16.90;;;;;;;;;;5082365;28;20056;-67
2021/07/02 04:51:47;;;;;;;56.75;17.10;;;;;;;;;;5087854;28;20024;-66
2021/07/02 04:54:12;;;;;;;51.40;15.43;;;;;;;;;;5079379;28;20035;-67
2021/07/02 04:56:38;;;;;;;96.90;19.90;;;;;;;;;;5080892;28;20036;-67
2021/07/02 04:59:03;;;;;;;72.00;17.13;;;;;;;;;;5085555;28;20104;-66
2021/07/02 05:01:28;;;;;;;151.32;22.13;;;;;;;;;;5081187;28;20032;-67
2021/07/02 05:03:54;;;;;;;120.38;19.67;;;;;;;;;;5082538;28;20521;-66
2021/07/02 05:06:19;;;;;;;67.20;15.30;;;;;;;;;;5084648;28;20020;-67
2021/07/02 05:08:44;;;;;;;84.88;16.13;;;;;;;;;;5086645;28;20032;-67
2021/07/02 05:11:11;;;;;;;73.70;13.75;;;;;;;;;;5088718;28;20052;-67
2021/07/02 05:13:37;;;;;;;26.25;10.02;;;;;;;;;;5087504;28;20051;-67
2021/07/02 05:16:02;;;;;;;64.63;13.07;;;;;;;;;;5083274;28;20540;-66
2021/07/02 05:18:28;;;;;;;37.83;11.50;;;;;;;;;;5096784;28;20044;-67
2021/07/02 05:20:53;;;;;;;67.10;12.15;;;;;;;;;;5092627;28;20146;-67
2021/07/02 05:23:18;;;;;;;14.32;9.30;;;;;;;;;;5089307;28;20465;-67
2021/07/02 05:25:43;;;;;;;16.75;9.20;;;;;;;;;;5079008;28;20055;-66
2021/07/02 05:28:09;;;;;;;13.85;9.82;;;;;;;;;;5077438;28;20388;-67
2021/07/02 05:30:34;;;;;;;14.35;8.60;;;;;;;;;;5077528;28;20105;-67
2021/07/02 05:32:59;;;;;;;13.10;7.60;;;;;;;;;;5082699;28;20082;-66
2021/07/02 05:35:25;;;;;;;11.70;7.57;;;;;;;;;;5078043;28;20035;-67
2021/07/02 05:37:50;;;;;;;9.43;6.70;;;;;;;;;;5078385;28;20039;-67
2021/07/02 05:40:16;;;;;;;11.65;6.35;;;;;;;;;;5077540;28;20036;-67
2021/07/02 05:42:42;;;;;;;7.95;6.43;;;;;;;;;;5076852;28;20020;-67
2021/07/02 05:45:08;;;;;;;6.10;5.50;;;;;;;;;;5091516;28;20431;-68
2021/07/02 05:47:46;;;;;;;7.38;5.90;;;;;;;;;;5086990;28;20067;-67
2021/07/02 05:50:11;;;;;;;6.38;5.43;;;;;;;;;;5085365;28;20060;-68
2021/07/02 05:52:37;;;;;;;6.72;5.18;;;;;;;;;;5075426;28;20396;-68
2021/07/02 05:55:02;;;;;;;7.00;5.22;;;;;;;;;;5075438;28;20051;-67
2021/07/02 05:57:27;;;;;;;6.13;5.03;;;;;;;;;;5075701;28;20384;-67
2021/07/02 05:59:53;;;;;;;7.35;4.75;;;;;;;;;;5075462;28;20504;-68
2021/07/02 06:02:18;;;;;;;7.75;5.22;;;;;;;;;;5075223;28;20062;-66
2021/07/02 06:04:43;;;;;;;5.55;4.70;;;;;;;;;;5075368;28;20040;-65
2021/07/02 06:07:09;;;;;;;9.63;6.25;;;;;;;;;;5075449;28;20037;-65
2021/07/02 06:09:36;;;;;;;5.97;4.75;;;;;;;;;;5073987;28;20489;-65
2021/07/02 06:12:02;;;;;;;6.43;4.85;;;;;;;;;;5075122;28;20070;-66
2021/07/02 06:14:29;;;;;;;5.90;4.03;;;;;;;;;;5075131;28;20373;-66
2021/07/02 06:16:54;;;;;;;5.32;4.40;;;;;;;;;;5074968;28;20122;-66
2021/07/02 06:19:19;;;;;;;6.30;4.22;;;;;;;;;;5075426;28;20111;-66
2021/07/02 06:21:45;;;;;;;5.18;3.97;;;;;;;;;;5074949;28;20081;-66
2021/07/02 06:24:10;;;;;;;5.28;3.85;;;;;;;;;;5075019;28;20028;-66
2021/07/02 06:26:35;;;;;;;5.20;3.88;;;;;;;;;;5083264;28;20055;-66
2021/07/02 06:29:01;;;;;;;5.35;4.22;;;;;;;;;;5095610;28;20404;-67
2021/07/02 06:31:26;;;;;;;5.35;3.85;;;;;;;;;;5094816;28;20023;-67
2021/07/02 06:33:51;;;;;;;6.83;3.87;;;;;;;;;;5095307;28;20380;-69
2021/07/02 06:36:16;;;;;;;5.15;4.47;;;;;;;;;;5094812;28;20375;-68
2021/07/02 06:38:42;;;;;;;8.82;4.30;;;;;;;;;;5093452;28;20020;-68
2021/07/02 06:41:07;;;;;;;6.85;3.78;;;;;;;;;;5095417;28;20023;-68
2021/07/02 06:43:32;;;;;;;5.72;3.50;;;;;;;;;;5094968;28;20035;-68
2021/07/02 06:45:58;;;;;;;13.43;6.22;;;;;;;;;;5094633;28;20490;-66
2021/07/02 06:48:23;;;;;;;7.82;5.25;;;;;;;;;;5094737;28;20027;-66
2021/07/02 06:50:48;;;;;;;8.70;5.35;;;;;;;;;;5092277;28;20438;-67
2021/07/02 06:53:15;;;;;;;6.80;4.60;;;;;;;;;;5093489;28;20103;-66
2021/07/02 06:55:40;;;;;;;5.65;4.15;;;;;;;;;;5094018;28;20020;-67
2021/07/02 06:58:09;;;;;;;5.78;4.40;;;;;;;;;;5094312;28;20028;-66
2021/07/02 07:00:34;;;;;;;7.93;5.03;;;;;;;;;;5094120;28;20020;-67
2021/07/02 07:02:59;;;;;;;4.45;3.85;;;;;;;;;;5094329;28;20025;-67
2021/07/02 07:05:25;;;;;;;5.50;4.38;;;;;;;;;;5094230;28;20458;-67
2021/07/02 07:07:50;;;;;;;7.05;4.30;;;;;;;;;;5091842;28;20016;-65
2021/07/02 07:10:15;;;;;;;7.27;3.97;;;;;;;;;;5091526;28;20031;-68
2021/07/02 07:12:41;;;;;;;4.90;3.90;;;;;;;;;;5094104;28;20275;-68
2021/07/02 07:15:07;;;;;;;8.00;5.22;;;;;;;;;;5092847;28;20051;-68
2021/07/02 07:17:32;;;;;;;8.40;5.30;;;;;;;;;;5093133;28;20485;-69
2021/07/02 07:19:58;;;;;;;6.80;4.43;;;;;;;;;;5093068;28;20047;-69
2021/07/02 07:22:23;;;;;;;6.78;5.68;;;;;;;;;;5093719;28;20035;-69
2021/07/02 07:24:48;;;;;;;7.70;4.20;;;;;;;;;;5093772;28;20027;-67
2021/07/02 07:27:14;;;;;;;6.97;4.30;;;;;;;;;;5093191;28;20043;-67
2021/07/02 07:29:39;;;;;;;10.23;5.40;;;;;;;;;;5093542;28;20022;-66
2021/07/02 07:32:04;;;;;;;6.30;4.72;;;;;;;;;;5093250;28;20601;-66
2021/07/02 07:37:02;;;;;;;10.88;5.22;;;;;;;;;;5093638;28;20028;-67
2021/07/02 07:39:27;;;;;;;7.72;5.20;;;;;;;;;;5093894;28;20304;-67
2021/07/02 07:41:52;;;;;;;7.65;4.93;;;;;;;;;;5080090;28;20423;-66
2021/07/02 07:44:18;;;;;;;6.80;4.78;;;;;;;;;;5072009;28;20085;-67
2021/07/02 07:46:43;;;;;;;6.43;4.90;;;;;;;;;;5073059;28;20054;-66
2021/07/02 07:49:09;;;;;;;5.47;4.70;;;;;;;;;;5073277;28;20067;-66
2021/07/02 07:51:37;;;;;;;6.10;4.47;;;;;;;;;;5073373;28;20028;-67
2021/07/02 07:54:02;;;;;;;10.45;5.03;;;;;;;;;;5072997;28;20024;-67
2021/07/02 07:56:30;;;;;;;6.28;5.07;;;;;;;;;;5073232;28;20435;-68
2021/07/02 07:58:55;;;;;;;11.68;4.93;;;;;;;;;;5072336;28;20039;-67
2021/07/02 08:01:20;;;;;;;5.80;4.32;;;;;;;;;;5086310;28;20441;-67
2021/07/02 08:03:46;;;;;;;9.82;4.85;;;;;;;;;;5092952;28;20032;-68
2021/07/02 08:06:11;;;;;;;7.78;4.70;;;;;;;;;;5092864;28;20028;-67
2021/07/02 08:08:36;;;;;;;6.75;5.32;;;;;;;;;;5093162;28;20024;-68
2021/07/02 08:11:02;;;;;;;6.82;4.97;;;;;;;;;;5093472;28;20032;-68
2021/07/02 08:13:30;;;;;;;5.57;4.32;;;;;;;;;;5093364;28;20027;-68
2021/07/02 08:15:56;;;;;;;5.63;4.00;;;;;;;;;;5093227;28;20027;-68
2021/07/02 08:18:21;;;;;;;8.13;4.20;;;;;;;;;;5093048;28;20358;-68
2021/07/02 08:20:47;;;;;;;7.57;4.50;;;;;;;;;;5092866;28;20118;-68
2021/07/02 08:23:13;;;;;;;5.60;4.20;;;;;;;;;;5093462;28;20036;-67
2021/07/02 08:25:38;;;;;;;5.43;4.85;;;;;;;;;;5092584;28;20260;-68
2021/07/02 08:30:48;;;;;;;5.63;4.35;;;;;;;;;;5092661;28;20031;-68
2021/07/02 08:33:17;;;;;;;5.55;4.63;;;;;;;;;;5092341;28;20028;-68
2021/07/02 08:35:43;;;;;;;11.57;4.88;;;;;;;;;;5078581;28;20031;-68
2021/07/02 08:38:08;;;;;;;7.63;4.10;;;;;;;;;;5073008;28;20020;-68
2021/07/02 08:40:34;;;;;;;7.13;4.45;;;;;;;;;;5072658;28;20265;-68
2021/07/02 08:42:59;;;;;;;6.40;4.25;;;;;;;;;;5072772;28;20031;-69
2021/07/02 08:45:24;;;;;;;7.43;3.60;;;;;;;;;;5071931;28;20445;-68
2021/07/02 08:47:51;;;;;;;6.63;4.53;;;;;;;;;;5083822;28;20043;-68
2021/07/02 08:50:22;;;;;;;5.88;4.60;;;;;;;;;;5090114;28;20150;-68
2021/07/02 08:52:47;;;;;;;8.88;3.95;;;;;;;;;;5075840;28;20036;-68
2021/07/02 08:55:12;;;;;;;5.22;4.00;;;;;;;;;;5073642;28;20064;-68
2021/07/02 08:57:38;;;;;;;7.38;4.13;;;;;;;;;;5072590;28;20453;-68
2021/07/02 09:00:03;;;;;;;5.65;4.20;;;;;;;;;;5085144;28;20054;-68
2021/07/02 09:02:30;;;;;;;7.13;4.18;;;;;;;;;;5084235;28;20024;-69
2021/07/02 09:04:55;;;;;;;6.93;5.03;;;;;;;;;;5091283;28;20048;-68
2021/07/02 09:07:21;;;;;;;7.38;4.40;;;;;;;;;;5079701;28;20095;-69
2021/07/02 09:09:46;;;;;;;7.60;3.97;;;;;;;;;;5092793;28;20036;-69
2021/07/02 09:12:12;;;;;;;5.68;4.50;;;;;;;;;;5088695;28;20257;-69
2021/07/02 09:14:38;;;;;;;7.68;4.60;;;;;;;;;;5083385;28;20056;-69
2021/07/02 09:17:12;;;;;;;7.35;4.50;;;;;;;;;;5081158;28;20396;-69
2021/07/02 09:19:37;;;;;;;8.43;4.90;;;;;;;;;;5092896;28;20347;-68
2021/07/02 09:22:12;;;;;;;7.07;5.93;;;;;;;;;;5079376;28;20028;-68
2021/07/02 09:24:38;;;;;;;6.03;5.05;;;;;;;;;;5094691;28;20035;-69
2021/07/02 09:27:26;;;;;;;12.15;6.25;;;;;;;;;;5092673;28;20558;-69
2021/07/02 09:30:08;;;;;;;8.02;5.88;;;;;;;;;;5073974;28;20028;-69
2021/07/02 09:32:37;;;;;;;5.85;4.95;;;;;;;;;;5082715;28;20481;-69
2021/07/02 09:35:02;;;;;;;6.80;5.90;;;;;;;;;;5080134;28;20100;-69
2021/07/02 09:37:36;;;;;;;7.40;5.68;;;;;;;;;;5078357;28;20516;-69
2021/07/02 09:40:12;;;;;;;8.27;6.13;;;;;;;;;;5092095;28;20032;-69
2021/07/02 09:42:38;;;;;;;8.48;5.55;;;;;;;;;;5072384;28;20048;-69
2021/07/02 09:45:06;;;;;;;8.35;5.13;;;;;;;;;;5074520;28;20055;-69
2021/07/02 09:47:32;;;;;;;9.02;5.85;;;;;;;;;;5080022;28;20056;-70
2021/07/02 09:50:32;;;;;;;6.75;5.57;;;;;;;;;;5086755;28;20027;-69
2021/07/02 09:53:02;;;;;;;10.43;5.38;;;;;;;;;;5078231;28;20033;-69
2021/07/02 09:55:29;;;;;;;7.53;5.57;;;;;;;;;;5078543;28;20400;-69
2021/07/02 09:58:05;;;;;;;6.55;5.35;;;;;;;;;;5081118;28;20016;-69
2021/07/02 10:00:31;;;;;;;8.15;5.75;;;;;;;;;;5086987;28;20120;-69
2021/07/02 10:02:57;;;;;;;6.75;5.25;;;;;;;;;;5095098;28;20032;-69
2021/07/02 10:05:23;;;;;;;7.53;4.97;;;;;;;;;;5079493;28;20063;-69
2021/07/02 10:07:58;;;;;;;8.00;4.95;;;;;;;;;;5077819;28;20045;-69
2021/07/02 10:10:25;;;;;;;7.90;5.63;;;;;;;;;;5095679;28;20028;-69
2021/07/02 10:12:54;;;;;;;10.80;5.68;;;;;;;;;;5095522;28;20031;-68
2021/07/02 10:15:20;;;;;;;6.60;5.95;;;;;;;;;;5095226;28;20039;-68
2021/07/02 10:17:46;;;;;;;8.13;6.15;;;;;;;;;;5095617;28;20020;-69
2021/07/02 10:20:13;;;;;;;12.98;6.60;;;;;;;;;;5094175;28;20028;-68
2021/07/02 10:22:40;;;;;;;9.18;6.10;;;;;;;;;;5090349;28;20063;-68
2021/07/02 10:25:06;;;;;;;10.23;6.50;;;;;;;;;;5094202;28;20020;-69
2021/07/02 10:27:33;;;;;;;15.20;5.90;;;;;;;;;;5094505;28;20119;-68
2021/07/02 10:29:59;;;;;;;10.35;5.80;;;;;;;;;;5094015;28;20484;-68
2021/07/02 10:32:25;;;;;;;9.23;6.60;;;;;;;;;;5094160;28;20510;-69
2021/07/02 10:34:54;;;;;;;7.40;5.57;;;;;;;;;;5094471;28;20020;-68
2021/07/02 10:37:19;;;;;;;7.78;6.30;;;;;;;;;;5094420;28;20103;-68
2021/07/02 10:39:46;;;;;;;8.38;6.38;;;;;;;;;;5094347;28;20111;-67
2021/07/02 10:42:13;;;;;;;6.97;5.78;;;;;;;;;;5094112;28;20028;-67
2021/07/02 10:44:54;;;;;;;9.95;5.22;;;;;;;;;;5093025;28;20448;-68
2021/07/02 10:47:23;;;;;;;10.27;5.65;;;;;;;;;;5087490;28;20047;-68
2021/07/02 10:49:50;;;;;;;10.73;5.88;;;;;;;;;;5084814;28;20024;-65
2021/07/02 10:52:19;;;;;;;9.07;6.15;;;;;;;;;;5093263;28;20020;-70
2021/07/02 10:54:44;;;;;;;7.60;5.93;;;;;;;;;;5092182;28;20036;-69
2021/07/02 10:57:12;;;;;;;9.05;6.43;;;;;;;;;;5092969;28;20077;-70
2021/07/02 10:59:38;;;;;;;10.07;7.82;;;;;;;;;;5092452;28;20078;-70
2021/07/02 11:02:03;;;;;;;8.98;5.97;;;;;;;;;;5089107;28;20028;-69
2021/07/02 11:04:37;;;;;;;8.35;6.03;;;;;;;;;;5092486;28;20097;-69
2021/07/02 11:07:24;;;;;;;10.02;6.65;;;;;;;;;;5093279;28;20036;-69
2021/07/02 11:12:21;;;;;;;8.00;6.47;;;;;;;;;;5091204;28;20151;-69
2021/07/02 11:14:56;;;;;;;10.27;7.13;;;;;;;;;;5084795;28;20306;-68
2021/07/02 11:17:21;;;;;;;8.55;6.63;;;;;;;;;;5092664;28;20043;-69
2021/07/02 11:19:47;;;;;;;8.57;6.35;;;;;;;;;;5092802;28;20071;-69
2021/07/02 11:22:29;;;;;;;10.25;6.95;;;;;;;;;;5090938;28;20431;-68
2021/07/02 11:25:08;;;;;;;13.75;7.20;;;;;;;;;;5092850;28;20028;-69
2021/07/02 11:27:41;;;;;;;8.68;6.50;;;;;;;;;;5092469;28;20040;-69
2021/07/02 11:30:35;;;;;;;14.77;7.40;;;;;;;;;;5085476;28;20415;-69
2021/07/02 11:33:04;;;;;;;11.05;6.97;;;;;;;;;;5083325;28;20031;-69
2021/07/02 11:35:31;;;;;;;10.25;6.75;;;;;;;;;;5089598;28;20031;-69
2021/07/02 11:38:03;;;;;;;10.77;7.03;;;;;;;;;;5086687;28;20545;-67
2021/07/02 11:40:33;;;;;;;11.35;8.07;;;;;;;;;;5089863;28;20077;-69
2021/07/02 11:42:59;;;;;;;9.40;7.10;;;;;;;;;;5092039;28;20081;-68
2021/07/02 11:45:42;;;;;;;10.07;6.30;;;;;;;;;;5092894;28;20032;-68
2021/07/02 11:48:23;;;;;;;8.45;5.43;;;;;;;;;;5092983;28;20036;-68
2021/07/02 11:50:48;;;;;;;8.60;5.93;;;;;;;;;;5092960;28;20101;-69
2021/07/02 11:53:32;;;;;;;12.32;6.10;;;;;;;;;;5092517;28;20411;-68
2021/07/02 11:56:07;;;;;;;8.27;6.25;;;;;;;;;;5092553;28;20472;-68
2021/07/02 11:58:34;;;;;;;9.23;6.43;;;;;;;;;;5092972;28;20039;-68
2021/07/02 12:01:03;;;;;;;11.30;6.07;;;;;;;;;;5086948;28;20116;-68
2021/07/02 12:03:28;;;;;;;13.35;5.68;;;;;;;;;;5079584;28;20421;-69
2021/07/02 12:05:58;;;;;;;7.50;5.15;;;;;;;;;;5088158;28;20051;-69
2021/07/02 12:08:25;;;;;;;10.23;5.28;;;;;;;;;;5091695;28;20488;-69
2021/07/02 12:10:58;;;;;;;9.10;5.57;;;;;;;;;;5082096;28;20013;-68
2021/07/02 12:13:24;;;;;;;8.00;5.70;;;;;;;;;;5088804;28;20138;-68
2021/07/02 12:16:08;;;;;;;9.98;7.22;;;;;;;;;;5086737;28;20505;-69
2021/07/02 12:18:34;;;;;;;11.83;7.87;;;;;;;;;;5091928;28;20481;-69
2021/07/02 12:21:04;;;;;;;10.88;6.30;;;;;;;;;;5076450;28;20040;-68
2021/07/02 12:23:31;;;;;;;10.52;7.93;;;;;;;;;;5074300;28;20388;-69
2021/07/02 12:26:09;;;;;;;13.68;8.77;;;;;;;;;;5072771;28;20040;-69
2021/07/02 12:29:00;;;;;;;12.55;7.90;;;;;;;;;;5078390;28;20031;-69
2021/07/02 12:31:32;;;;;;;14.32;9.07;;;;;;;;;;5091805;28;20035;-68
2021/07/02 12:33:58;;;;;;;12.85;8.60;;;;;;;;;;5083646;28;20025;-69
2021/07/02 12:36:24;;;;;;;13.07;8.88;;;;;;;;;;5077934;28;20027;-68
2021/07/02 12:38:59;;;;;;;12.00;8.77;;;;;;;;;;5079713;28;20024;-68
2021/07/02 12:41:24;;;;;;;15.23;10.10;;;;;;;;;;5074558;28;20528;-68
2021/07/02 12:43:50;;;;;;;11.50;7.93;;;;;;;;;;5074837;28;20436;-68
2021/07/02 12:46:16;;;;;;;11.98;7.78;;;;;;;;;;5084310;28;20036;-68
2021/07/02 12:48:41;;;;;;;10.27;7.53;;;;;;;;;;5089625;28;20028;-69
2021/07/02 12:51:06;;;;;;;11.32;7.65;;;;;;;;;;5071952;28;20041;-68
2021/07/02 12:56:15;;;;;;;11.25;7.38;;;;;;;;;;5086312;28;20031;-68
2021/07/02 12:58:41;;;;;;;9.70;6.90;;;;;;;;;;5083562;28;20032;-68
2021/07/02 13:01:09;;;;;;;15.65;7.28;;;;;;;;;;5075843;28;20047;-69
2021/07/02 13:03:34;;;;;;;9.48;7.38;;;;;;;;;;5084250;28;20028;-69
2021/07/02 13:06:12;;;;;;;11.07;7.47;;;;;;;;;;5092480;28;20036;-67
2021/07/02 13:08:40;;;;;;;12.43;7.18;;;;;;;;;;5084714;28;20016;-69
2021/07/02 13:11:18;;;;;;;10.10;6.60;;;;;;;;;;5071969;28;20037;-66
2021/07/02 13:13:44;;;;;;;10.40;6.07;;;;;;;;;;5070816;28;20094;-68
2021/07/02 13:16:10;;;;;;;9.88;6.20;;;;;;;;;;5071335;28;20029;-68
2021/07/02 13:18:38;;;;;;;10.07;6.13;;;;;;;;;;5080690;28;20377;-68
2021/07/02 13:21:10;;;;;;;11.00;6.63;;;;;;;;;;5094801;28;20377;-68
2021/07/02 13:23:37;;;;;;;7.95;5.78;;;;;;;;;;5093858;28;20028;-68
2021/07/02 13:26:02;;;;;;;10.57;5.53;;;;;;;;;;5088467;28;20422;-68
2021/07/02 13:28:28;;;;;;;10.70;5.80;;;;;;;;;;5087385;28;20103;-68
2021/07/02 13:30:53;;;;;;;8.63;4.97;;;;;;;;;;5088807;28;20039;-68
2021/07/02 13:33:18;;;;;;;11.07;4.95;;;;;;;;;;5095141;28;20384;-69
2021/07/02 13:35:43;;;;;;;8.38;5.25;;;;;;;;;;5075805;28;20020;-68
2021/07/02 13:38:18;;;;;;;8.40;5.22;;;;;;;;;;5084506;28;20032;-68
2021/07/02 13:40:47;;;;;;;12.50;5.57;;;;;;;;;;5090813;28;20457;-67
2021/07/02 13:43:12;;;;;;;7.28;4.75;;;;;;;;;;5084691;28;20046;-68
2021/07/02 13:45:38;;;;;;;7.35;4.75;;;;;;;;;;5095068;28;20473;-69
2021/07/02 13:48:07;;;;;;;6.68;4.50;;;;;;;;;;5094152;28;20444;-68
2021/07/02 13:50:33;;;;;;;14.13;4.35;;;;;;;;;;5094283;28;20028;-68
2021/07/02 13:52:59;;;;;;;6.25;3.72;;;;;;;;;;5094119;28;20032;-69
2021/07/02 13:55:24;;;;;;;9.88;5.00;;;;;;;;;;5094946;28;20472;-68
2021/07/02 13:57:49;;;;;;;5.30;3.90;;;;;;;;;;5082575;28;20059;-69
2021/07/02 14:00:15;;;;;;;7.82;4.30;;;;;;;;;;5094440;28;20027;-68
2021/07/02 14:02:40;;;;;;;6.90;4.35;;;;;;;;;;5091157;28;20346;-68
2021/07/02 14:05:05;;;;;;;5.78;3.80;;;;;;;;;;5075086;28;20060;-67
2021/07/02 14:07:31;;;;;;;6.47;3.63;;;;;;;;;;5086933;28;20480;-67
2021/07/02 14:09:56;;;;;;;6.85;4.63;;;;;;;;;;5093943;28;20373;-68
2021/07/02 14:12:21;;;;;;;9.90;4.30;;;;;;;;;;5093651;28;20452;-68
2021/07/02 14:14:46;;;;;;;5.35;3.80;;;;;;;;;;5094641;28;20019;-69
2021/07/02 14:17:12;;;;;;;8.82;4.40;;;;;;;;;;5093787;28;20016;-68
2021/07/02 14:19:38;;;;;;;4.93;3.85;;;;;;;;;;5094009;28;20073;-68
2021/07/02 14:22:03;;;;;;;11.00;4.47;;;;;;;;;;5094246;28;20492;-68
2021/07/02 14:24:29;;;;;;;5.47;4.10;;;;;;;;;;5094526;28;20024;-68
2021/07/02 14:26:55;;;;;;;9.02;4.45;;;;;;;;;;5093718;28;20097;-68
2021/07/02 14:29:20;;;;;;;6.03;3.92;;;;;;;;;;5092732;28;20021;-67
2021/07/02 14:31:45;;;;;;;12.75;4.40;;;;;;;;;;5093575;28;20102;-68
2021/07/02 14:34:10;;;;;;;5.50;3.45;;;;;;;;;;5094293;28;20036;-67
2021/07/02 14:36:36;;;;;;;6.88;4.30;;;;;;;;;;5093954;28;20027;-66
2021/07/02 14:39:02;;;;;;;5.75;4.00;;;;;;;;;;5093654;28;20035;-69